sensor_id;sensor_type;location;lat;lon;timestamp;P1;durP1;ratioP1;P2;durP2;ratioP2
52440;SDS011;39611;46.062;8.950;2023-05-18T00:01:12;0.30;;;0.20;;
52440;SDS011;39611;46.062;8.950;2023-05-18T00:03:40;4.25;;;0.30;;
52440;SDS011;39611;46.062;8.950;2023-05-18T00:06:06;0.85;;;0.40;;
52440;SDS011;39611;46.062;8.950;2023-05-18T00:08:33;0.60;;;0.30;;
52440;SDS011;39611;46.062;8.950;2023-05-18T00:11:00;0.38;;;0.20;;
52440;SDS011;39611;46.062;8.950;2023-05-18T00:13:27;0.43;;;0.30;;
52440;SDS011;39611;46.062;8.950;2023-05-18T00:15:53;0.38;;;0.30;;
52440;SDS011;39611;46.062;8.950;2023-05-18T00:18:20;0.73;;;0.30;;
52440;SDS011;39611;46.062;8.950;2023-05-18T00:20:52;0.20;;;0.20;;
52440;SDS011;39611;46.062;8.950;2023-05-18T00:23:26;0.60;;;0.30;;
52440;SDS011;39611;46.062;8.950;2023-05-18T00:25:58;0.50;;;0.30;;
52440;SDS011;39611;46.062;8.950;2023-05-18T00:28:24;0.75;;;0.20;;
52440;SDS011;39611;46.062;8.950;2023-05-18T00:30:52;0.30;;;0.13;;
52440;SDS011;39611;46.062;8.950;2023-05-18T00:33:18;1.45;;;0.70;;
52440;SDS011;39611;46.062;8.950;2023-05-18T00:35:44;2.22;;;0.82;;
52440;SDS011;39611;46.062;8.950;2023-05-18T00:38:11;3.40;;;0.90;;
52440;SDS011;39611;46.062;8.950;2023-05-18T00:40:40;5.18;;;1.35;;
52440;SDS011;39611;46.062;8.950;2023-05-18T00:43:07;2.83;;;1.00;;
52440;SDS011;39611;46.062;8.950;2023-05-18T00:45:33;4.30;;;1.13;;
52440;SDS011;39611;46.062;8.950;2023-05-18T00:48:00;3.55;;;1.20;;
52440;SDS011;39611;46.062;8.950;2023-05-18T00:50:26;2.35;;;0.90;;
52440;SDS011;39611;46.062;8.950;2023-05-18T00:52:52;2.28;;;0.73;;
52440;SDS011;39611;46.062;8.950;2023-05-18T00:55:19;0.82;;;0.30;;
52440;SDS011;39611;46.062;8.950;2023-05-18T00:57:46;1.50;;;0.30;;
52440;SDS011;39611;46.062;8.950;2023-05-18T01:00:13;0.63;;;0.30;;
52440;SDS011;39611;46.062;8.950;2023-05-18T01:02:40;0.30;;;0.30;;
52440;SDS011;39611;46.062;8.950;2023-05-18T01:05:11;0.70;;;0.32;;
52440;SDS011;39611;46.062;8.950;2023-05-18T01:07:38;0.55;;;0.20;;
52440;SDS011;39611;46.062;8.950;2023-05-18T01:10:08;0.25;;;0.10;;
52440;SDS011;39611;46.062;8.950;2023-05-18T01:12:36;0.50;;;0.20;;
52440;SDS011;39611;46.062;8.950;2023-05-18T01:15:14;0.20;;;0.15;;
52440;SDS011;39611;46.062;8.950;2023-05-18T01:17:50;1.25;;;0.25;;
52440;SDS011;39611;46.062;8.950;2023-05-18T01:23:11;0.30;;;0.10;;
52440;SDS011;39611;46.062;8.950;2023-05-18T01:28:14;0.30;;;0.13;;
52440;SDS011;39611;46.062;8.950;2023-05-18T01:30:42;0.55;;;0.30;;
52440;SDS011;39611;46.062;8.950;2023-05-18T01:33:09;0.17;;;0.10;;
52440;SDS011;39611;46.062;8.950;2023-05-18T01:35:36;0.60;;;0.20;;
52440;SDS011;39611;46.062;8.950;2023-05-18T01:38:03;0.50;;;0.28;;
52440;SDS011;39611;46.062;8.950;2023-05-18T01:40:30;0.52;;;0.25;;
52440;SDS011;39611;46.062;8.950;2023-05-18T01:42:58;0.80;;;0.20;;
52440;SDS011;39611;46.062;8.950;2023-05-18T01:45:28;0.60;;;0.30;;
52440;SDS011;39611;46.062;8.950;2023-05-18T01:47:56;0.30;;;0.20;;
52440;SDS011;39611;46.062;8.950;2023-05-18T01:50:28;0.82;;;0.30;;
52440;SDS011;39611;46.062;8.950;2023-05-18T01:52:57;0.10;;;0.10;;
52440;SDS011;39611;46.062;8.950;2023-05-18T01:55:25;0.13;;;0.10;;
52440;SDS011;39611;46.062;8.950;2023-05-18T01:57:55;0.30;;;0.20;;
52440;SDS011;39611;46.062;8.950;2023-05-18T02:00:22;0.10;;;0.10;;
52440;SDS011;39611;46.062;8.950;2023-05-18T02:02:49;0.20;;;0.10;;
52440;SDS011;39611;46.062;8.950;2023-05-18T02:05:15;0.20;;;0.10;;
52440;SDS011;39611;46.062;8.950;2023-05-18T02:07:42;0.43;;;0.20;;
52440;SDS011;39611;46.062;8.950;2023-05-18T02:10:12;0.05;;;0.03;;
52440;SDS011;39611;46.062;8.950;2023-05-18T02:12:39;0.43;;;0.10;;
52440;SDS011;39611;46.062;8.950;2023-05-18T02:15:05;0.10;;;0.10;;
52440;SDS011;39611;46.062;8.950;2023-05-18T02:17:32;0.10;;;0.10;;
52440;SDS011;39611;46.062;8.950;2023-05-18T02:19:59;0.43;;;0.10;;
52440;SDS011;39611;46.062;8.950;2023-05-18T02:22:25;0.10;;;0.10;;
52440;SDS011;39611;46.062;8.950;2023-05-18T02:24:52;0.20;;;0.10;;
52440;SDS011;39611;46.062;8.950;2023-05-18T02:27:19;0.52;;;0.20;;
52440;SDS011;39611;46.062;8.950;2023-05-18T02:29:45;1.08;;;0.13;;
52440;SDS011;39611;46.062;8.950;2023-05-18T02:32:11;0.10;;;0.10;;
52440;SDS011;39611;46.062;8.950;2023-05-18T02:34:38;0.10;;;0.00;;
52440;SDS011;39611;46.062;8.950;2023-05-18T02:37:07;0.30;;;0.10;;
52440;SDS011;39611;46.062;8.950;2023-05-18T02:39:33;0.38;;;0.20;;
52440;SDS011;39611;46.062;8.950;2023-05-18T02:41:59;0.20;;;0.10;;
52440;SDS011;39611;46.062;8.950;2023-05-18T02:44:26;0.20;;;0.10;;
52440;SDS011;39611;46.062;8.950;2023-05-18T02:46:53;0.52;;;0.15;;
52440;SDS011;39611;46.062;8.950;2023-05-18T02:49:19;0.25;;;0.10;;
52440;SDS011;39611;46.062;8.950;2023-05-18T02:51:45;0.10;;;0.10;;
52440;SDS011;39611;46.062;8.950;2023-05-18T02:54:12;0.52;;;0.20;;
52440;SDS011;39611;46.062;8.950;2023-05-18T02:56:38;0.10;;;0.10;;
52440;SDS011;39611;46.062;8.950;2023-05-18T02:59:06;0.25;;;0.10;;
52440;SDS011;39611;46.062;8.950;2023-05-18T03:01:34;0.40;;;0.30;;
52440;SDS011;39611;46.062;8.950;2023-05-18T03:04:02;0.30;;;0.10;;
52440;SDS011;39611;46.062;8.950;2023-05-18T03:06:28;0.15;;;0.10;;
52440;SDS011;39611;46.062;8.950;2023-05-18T03:08:55;0.20;;;0.15;;
52440;SDS011;39611;46.062;8.950;2023-05-18T03:11:22;0.80;;;0.10;;
52440;SDS011;39611;46.062;8.950;2023-05-18T03:13:48;0.30;;;0.10;;
52440;SDS011;39611;46.062;8.950;2023-05-18T03:16:15;0.30;;;0.10;;
52440;SDS011;39611;46.062;8.950;2023-05-18T03:18:41;0.10;;;0.10;;
52440;SDS011;39611;46.062;8.950;2023-05-18T03:21:08;2.72;;;0.10;;
52440;SDS011;39611;46.062;8.950;2023-05-18T03:23:35;0.85;;;0.10;;
52440;SDS011;39611;46.062;8.950;2023-05-18T03:26:01;0.20;;;0.20;;
52440;SDS011;39611;46.062;8.950;2023-05-18T03:28:28;0.55;;;0.20;;
52440;SDS011;39611;46.062;8.950;2023-05-18T03:30:54;1.08;;;0.20;;
52440;SDS011;39611;46.062;8.950;2023-05-18T03:33:21;0.40;;;0.20;;
52440;SDS011;39611;46.062;8.950;2023-05-18T03:35:47;0.20;;;0.10;;
52440;SDS011;39611;46.062;8.950;2023-05-18T03:38:14;0.38;;;0.20;;
52440;SDS011;39611;46.062;8.950;2023-05-18T03:40:40;0.20;;;0.10;;
52440;SDS011;39611;46.062;8.950;2023-05-18T03:43:07;0.40;;;0.10;;
52440;SDS011;39611;46.062;8.950;2023-05-18T03:45:33;0.30;;;0.10;;
52440;SDS011;39611;46.062;8.950;2023-05-18T03:48:00;0.43;;;0.30;;
52440;SDS011;39611;46.062;8.950;2023-05-18T03:50:26;0.05;;;0.05;;
52440;SDS011;39611;46.062;8.950;2023-05-18T03:52:54;0.95;;;0.15;;
52440;SDS011;39611;46.062;8.950;2023-05-18T03:55:20;0.08;;;0.05;;
52440;SDS011;39611;46.062;8.950;2023-05-18T03:57:47;0.20;;;0.20;;
52440;SDS011;39611;46.062;8.950;2023-05-18T04:00:13;0.10;;;0.10;;
52440;SDS011;39611;46.062;8.950;2023-05-18T04:02:40;0.20;;;0.13;;
52440;SDS011;39611;46.062;8.950;2023-05-18T04:05:07;0.30;;;0.20;;
52440;SDS011;39611;46.062;8.950;2023-05-18T04:07:33;0.85;;;0.10;;
52440;SDS011;39611;46.062;8.950;2023-05-18T04:10:10;1.98;;;0.40;;
52440;SDS011;39611;46.062;8.950;2023-05-18T04:12:37;0.43;;;0.10;;
52440;SDS011;39611;46.062;8.950;2023-05-18T04:15:04;0.68;;;0.20;;
52440;SDS011;39611;46.062;8.950;2023-05-18T04:17:30;0.82;;;0.20;;
52440;SDS011;39611;46.062;8.950;2023-05-18T04:19:57;0.32;;;0.20;;
52440;SDS011;39611;46.062;8.950;2023-05-18T04:22:24;2.50;;;0.32;;
52440;SDS011;39611;46.062;8.950;2023-05-18T04:24:50;4.50;;;1.33;;
52440;SDS011;39611;46.062;8.950;2023-05-18T04:27:20;3.33;;;1.17;;
52440;SDS011;39611;46.062;8.950;2023-05-18T04:29:47;4.70;;;1.10;;
52440;SDS011;39611;46.062;8.950;2023-05-18T04:32:14;2.72;;;1.15;;
52440;SDS011;39611;46.062;8.950;2023-05-18T04:34:43;1.95;;;0.68;;
52440;SDS011;39611;46.062;8.950;2023-05-18T04:37:14;1.00;;;0.50;;
52440;SDS011;39611;46.062;8.950;2023-05-18T04:39:43;1.85;;;0.52;;
52440;SDS011;39611;46.062;8.950;2023-05-18T04:42:09;2.20;;;1.50;;
52440;SDS011;39611;46.062;8.950;2023-05-18T04:44:35;1.70;;;1.00;;
52440;SDS011;39611;46.062;8.950;2023-05-18T04:47:04;0.65;;;0.52;;
52440;SDS011;39611;46.062;8.950;2023-05-18T04:49:33;1.25;;;0.60;;
52440;SDS011;39611;46.062;8.950;2023-05-18T04:52:00;1.45;;;0.70;;
52440;SDS011;39611;46.062;8.950;2023-05-18T04:54:26;0.40;;;0.35;;
52440;SDS011;39611;46.062;8.950;2023-05-18T04:56:56;0.73;;;0.47;;
52440;SDS011;39611;46.062;8.950;2023-05-18T04:59:22;0.52;;;0.30;;
52440;SDS011;39611;46.062;8.950;2023-05-18T05:01:51;1.17;;;0.40;;
52440;SDS011;39611;46.062;8.950;2023-05-18T05:04:19;0.40;;;0.40;;
52440;SDS011;39611;46.062;8.950;2023-05-18T05:06:45;0.40;;;0.30;;
52440;SDS011;39611;46.062;8.950;2023-05-18T05:09:12;0.20;;;0.20;;
52440;SDS011;39611;46.062;8.950;2023-05-18T05:11:42;0.38;;;0.20;;
52440;SDS011;39611;46.062;8.950;2023-05-18T05:14:09;0.13;;;0.10;;
52440;SDS011;39611;46.062;8.950;2023-05-18T05:16:35;0.25;;;0.17;;
52440;SDS011;39611;46.062;8.950;2023-05-18T05:19:02;0.38;;;0.17;;
52440;SDS011;39611;46.062;8.950;2023-05-18T05:21:28;0.60;;;0.15;;
52440;SDS011;39611;46.062;8.950;2023-05-18T05:23:55;0.80;;;0.25;;
52440;SDS011;39611;46.062;8.950;2023-05-18T05:26:21;0.50;;;0.30;;
52440;SDS011;39611;46.062;8.950;2023-05-18T05:28:47;0.60;;;0.20;;
52440;SDS011;39611;46.062;8.950;2023-05-18T05:31:14;0.32;;;0.20;;
52440;SDS011;39611;46.062;8.950;2023-05-18T05:33:40;0.68;;;0.30;;
52440;SDS011;39611;46.062;8.950;2023-05-18T05:36:07;0.50;;;0.20;;
52440;SDS011;39611;46.062;8.950;2023-05-18T05:38:33;0.40;;;0.20;;
52440;SDS011;39611;46.062;8.950;2023-05-18T05:41:00;0.35;;;0.20;;
52440;SDS011;39611;46.062;8.950;2023-05-18T05:43:26;0.52;;;0.38;;
52440;SDS011;39611;46.062;8.950;2023-05-18T05:45:53;0.50;;;0.20;;
52440;SDS011;39611;46.062;8.950;2023-05-18T05:48:19;0.52;;;0.20;;
52440;SDS011;39611;46.062;8.950;2023-05-18T05:50:46;0.52;;;0.20;;
52440;SDS011;39611;46.062;8.950;2023-05-18T05:53:12;0.50;;;0.30;;
52440;SDS011;39611;46.062;8.950;2023-05-18T05:55:42;0.60;;;0.30;;
52440;SDS011;39611;46.062;8.950;2023-05-18T05:58:09;0.85;;;0.28;;
52440;SDS011;39611;46.062;8.950;2023-05-18T06:00:35;1.98;;;0.40;;
52440;SDS011;39611;46.062;8.950;2023-05-18T06:03:01;1.85;;;0.32;;
52440;SDS011;39611;46.062;8.950;2023-05-18T06:05:28;0.65;;;0.40;;
52440;SDS011;39611;46.062;8.950;2023-05-18T06:07:55;0.45;;;0.40;;
52440;SDS011;39611;46.062;8.950;2023-05-18T06:10:21;0.77;;;0.43;;
52440;SDS011;39611;46.062;8.950;2023-05-18T06:12:48;0.65;;;0.40;;
52440;SDS011;39611;46.062;8.950;2023-05-18T06:15:14;1.40;;;0.50;;
52440;SDS011;39611;46.062;8.950;2023-05-18T06:17:41;1.95;;;0.68;;
52440;SDS011;39611;46.062;8.950;2023-05-18T06:20:09;1.00;;;0.40;;
52440;SDS011;39611;46.062;8.950;2023-05-18T06:22:36;1.02;;;0.50;;
52440;SDS011;39611;46.062;8.950;2023-05-18T06:25:02;3.17;;;0.43;;
52440;SDS011;39611;46.062;8.950;2023-05-18T06:27:29;0.28;;;0.20;;
52440;SDS011;39611;46.062;8.950;2023-05-18T06:29:55;0.15;;;0.15;;
52440;SDS011;39611;46.062;8.950;2023-05-18T06:32:21;0.30;;;0.30;;
52440;SDS011;39611;46.062;8.950;2023-05-18T06:34:48;0.25;;;0.20;;
52440;SDS011;39611;46.062;8.950;2023-05-18T06:37:16;0.55;;;0.20;;
52440;SDS011;39611;46.062;8.950;2023-05-18T06:39:42;0.50;;;0.38;;
52440;SDS011;39611;46.062;8.950;2023-05-18T06:42:08;0.47;;;0.30;;
52440;SDS011;39611;46.062;8.950;2023-05-18T06:44:35;1.23;;;0.40;;
52440;SDS011;39611;46.062;8.950;2023-05-18T06:47:01;1.25;;;0.40;;
52440;SDS011;39611;46.062;8.950;2023-05-18T06:49:27;2.38;;;1.08;;
52440;SDS011;39611;46.062;8.950;2023-05-18T06:51:54;1.63;;;0.90;;
52440;SDS011;39611;46.062;8.950;2023-05-18T06:54:20;2.13;;;0.95;;
52440;SDS011;39611;46.062;8.950;2023-05-18T06:56:47;3.60;;;0.95;;
52440;SDS011;39611;46.062;8.950;2023-05-18T06:59:13;1.95;;;1.00;;
52440;SDS011;39611;46.062;8.950;2023-05-18T07:01:39;2.13;;;0.90;;
52440;SDS011;39611;46.062;8.950;2023-05-18T07:04:06;2.55;;;1.10;;
52440;SDS011;39611;46.062;8.950;2023-05-18T07:06:33;1.85;;;0.98;;
52440;SDS011;39611;46.062;8.950;2023-05-18T07:09:01;2.85;;;1.10;;
52440;SDS011;39611;46.062;8.950;2023-05-18T07:11:27;1.70;;;0.85;;
52440;SDS011;39611;46.062;8.950;2023-05-18T07:13:55;5.97;;;0.98;;
52440;SDS011;39611;46.062;8.950;2023-05-18T07:16:21;1.98;;;1.25;;
52440;SDS011;39611;46.062;8.950;2023-05-18T07:18:47;1.30;;;0.60;;
52440;SDS011;39611;46.062;8.950;2023-05-18T07:21:14;2.58;;;0.80;;
52440;SDS011;39611;46.062;8.950;2023-05-18T07:23:40;2.72;;;0.90;;
52440;SDS011;39611;46.062;8.950;2023-05-18T07:26:06;1.50;;;0.82;;
52440;SDS011;39611;46.062;8.950;2023-05-18T07:28:36;2.47;;;1.10;;
52440;SDS011;39611;46.062;8.950;2023-05-18T07:31:02;1.40;;;0.82;;
52440;SDS011;39611;46.062;8.950;2023-05-18T07:33:29;2.42;;;0.90;;
52440;SDS011;39611;46.062;8.950;2023-05-18T07:35:55;1.80;;;0.80;;
52440;SDS011;39611;46.062;8.950;2023-05-18T07:38:21;1.67;;;0.70;;
52440;SDS011;39611;46.062;8.950;2023-05-18T07:40:48;2.63;;;1.10;;
52440;SDS011;39611;46.062;8.950;2023-05-18T07:43:14;2.33;;;1.02;;
52440;SDS011;39611;46.062;8.950;2023-05-18T07:45:40;1.77;;;0.70;;
52440;SDS011;39611;46.062;8.950;2023-05-18T07:48:07;5.40;;;1.25;;
52440;SDS011;39611;46.062;8.950;2023-05-18T07:50:33;2.28;;;1.23;;
52440;SDS011;39611;46.062;8.950;2023-05-18T07:52:59;1.75;;;1.08;;
52440;SDS011;39611;46.062;8.950;2023-05-18T07:55:26;3.45;;;1.20;;
52440;SDS011;39611;46.062;8.950;2023-05-18T07:57:52;2.13;;;1.08;;
52440;SDS011;39611;46.062;8.950;2023-05-18T08:00:18;3.03;;;1.30;;
52440;SDS011;39611;46.062;8.950;2023-05-18T08:02:45;2.00;;;0.98;;
52440;SDS011;39611;46.062;8.950;2023-05-18T08:05:12;2.05;;;1.08;;
52440;SDS011;39611;46.062;8.950;2023-05-18T08:07:38;2.45;;;1.00;;
52440;SDS011;39611;46.062;8.950;2023-05-18T08:10:05;2.13;;;1.05;;
52440;SDS011;39611;46.062;8.950;2023-05-18T08:12:32;3.28;;;1.23;;
52440;SDS011;39611;46.062;8.950;2023-05-18T08:14:58;2.15;;;1.30;;
52440;SDS011;39611;46.062;8.950;2023-05-18T08:17:24;4.22;;;1.27;;
52440;SDS011;39611;46.062;8.950;2023-05-18T08:19:51;4.28;;;1.23;;
52440;SDS011;39611;46.062;8.950;2023-05-18T08:22:18;3.70;;;1.50;;
52440;SDS011;39611;46.062;8.950;2023-05-18T08:24:45;1.67;;;1.20;;
52440;SDS011;39611;46.062;8.950;2023-05-18T08:27:12;2.80;;;0.90;;
52440;SDS011;39611;46.062;8.950;2023-05-18T08:29:38;2.33;;;1.10;;
52440;SDS011;39611;46.062;8.950;2023-05-18T08:32:04;3.22;;;1.55;;
52440;SDS011;39611;46.062;8.950;2023-05-18T08:34:32;4.28;;;1.75;;
52440;SDS011;39611;46.062;8.950;2023-05-18T08:36:58;2.33;;;1.45;;
52440;SDS011;39611;46.062;8.950;2023-05-18T08:39:25;1.80;;;0.70;;
52440;SDS011;39611;46.062;8.950;2023-05-18T08:41:56;2.00;;;1.08;;
52440;SDS011;39611;46.062;8.950;2023-05-18T08:47:18;2.90;;;1.10;;
52440;SDS011;39611;46.062;8.950;2023-05-18T08:49:51;1.50;;;0.70;;
52440;SDS011;39611;46.062;8.950;2023-05-18T08:52:17;3.20;;;1.10;;
52440;SDS011;39611;46.062;8.950;2023-05-18T08:54:46;1.88;;;1.00;;
52440;SDS011;39611;46.062;8.950;2023-05-18T08:57:15;3.03;;;1.30;;
52440;SDS011;39611;46.062;8.950;2023-05-18T08:59:42;3.05;;;1.20;;
52440;SDS011;39611;46.062;8.950;2023-05-18T09:02:09;2.40;;;1.10;;
52440;SDS011;39611;46.062;8.950;2023-05-18T09:04:36;3.38;;;1.13;;
52440;SDS011;39611;46.062;8.950;2023-05-18T09:07:03;2.28;;;1.17;;
52440;SDS011;39611;46.062;8.950;2023-05-18T09:09:30;1.95;;;0.90;;
52440;SDS011;39611;46.062;8.950;2023-05-18T09:11:57;2.58;;;1.08;;
52440;SDS011;39611;46.062;8.950;2023-05-18T09:14:23;1.83;;;0.88;;
52440;SDS011;39611;46.062;8.950;2023-05-18T09:16:52;2.63;;;0.90;;
52440;SDS011;39611;46.062;8.950;2023-05-18T09:19:18;1.15;;;0.68;;
52440;SDS011;39611;46.062;8.950;2023-05-18T09:21:45;2.05;;;0.90;;
52440;SDS011;39611;46.062;8.950;2023-05-18T09:24:12;1.85;;;0.70;;
52440;SDS011;39611;46.062;8.950;2023-05-18T09:26:39;1.08;;;0.63;;
52440;SDS011;39611;46.062;8.950;2023-05-18T09:29:15;1.50;;;0.68;;
52440;SDS011;39611;46.062;8.950;2023-05-18T09:31:43;1.15;;;0.50;;
52440;SDS011;39611;46.062;8.950;2023-05-18T09:34:09;1.70;;;0.57;;
52440;SDS011;39611;46.062;8.950;2023-05-18T09:36:36;1.35;;;0.60;;
52440;SDS011;39611;46.062;8.950;2023-05-18T09:39:09;0.77;;;0.40;;
52440;SDS011;39611;46.062;8.950;2023-05-18T09:41:38;0.95;;;0.50;;
52440;SDS011;39611;46.062;8.950;2023-05-18T09:44:06;1.23;;;0.50;;
52440;SDS011;39611;46.062;8.950;2023-05-18T09:46:35;1.13;;;0.40;;
52440;SDS011;39611;46.062;8.950;2023-05-18T09:49:03;0.85;;;0.55;;
52440;SDS011;39611;46.062;8.950;2023-05-18T09:51:30;0.90;;;0.45;;
52440;SDS011;39611;46.062;8.950;2023-05-18T09:53:57;1.23;;;0.70;;
52440;SDS011;39611;46.062;8.950;2023-05-18T09:56:24;0.55;;;0.30;;
52440;SDS011;39611;46.062;8.950;2023-05-18T09:58:52;2.67;;;0.57;;
52440;SDS011;39611;46.062;8.950;2023-05-18T10:01:20;1.73;;;0.68;;
52440;SDS011;39611;46.062;8.950;2023-05-18T10:03:46;0.63;;;0.50;;
52440;SDS011;39611;46.062;8.950;2023-05-18T10:06:14;0.98;;;0.60;;
52440;SDS011;39611;46.062;8.950;2023-05-18T10:08:45;1.50;;;0.70;;
52440;SDS011;39611;46.062;8.950;2023-05-18T10:11:11;1.25;;;0.70;;
52440;SDS011;39611;46.062;8.950;2023-05-18T10:13:37;2.00;;;0.80;;
52440;SDS011;39611;46.062;8.950;2023-05-18T10:16:05;1.13;;;0.70;;
52440;SDS011;39611;46.062;8.950;2023-05-18T10:18:36;4.00;;;1.20;;
52440;SDS011;39611;46.062;8.950;2023-05-18T10:21:03;2.20;;;1.00;;
52440;SDS011;39611;46.062;8.950;2023-05-18T10:23:30;1.45;;;0.68;;
52440;SDS011;39611;46.062;8.950;2023-05-18T10:25:57;1.27;;;0.60;;
52440;SDS011;39611;46.062;8.950;2023-05-18T10:30:52;0.80;;;0.50;;
52440;SDS011;39611;46.062;8.950;2023-05-18T10:33:21;0.65;;;0.30;;
52440;SDS011;39611;46.062;8.950;2023-05-18T10:35:55;0.73;;;0.40;;
52440;SDS011;39611;46.062;8.950;2023-05-18T10:38:22;0.63;;;0.30;;
52440;SDS011;39611;46.062;8.950;2023-05-18T10:40:50;2.50;;;0.70;;
52440;SDS011;39611;46.062;8.950;2023-05-18T10:43:17;0.57;;;0.40;;
52440;SDS011;39611;46.062;8.950;2023-05-18T10:45:47;1.70;;;0.40;;
52440;SDS011;39611;46.062;8.950;2023-05-18T10:48:17;0.90;;;0.47;;
52440;SDS011;39611;46.062;8.950;2023-05-18T10:50:44;1.05;;;0.45;;
52440;SDS011;39611;46.062;8.950;2023-05-18T10:53:14;1.20;;;0.47;;
52440;SDS011;39611;46.062;8.950;2023-05-18T10:55:41;1.75;;;0.60;;
52440;SDS011;39611;46.062;8.950;2023-05-18T10:58:09;0.65;;;0.40;;
52440;SDS011;39611;46.062;8.950;2023-05-18T11:00:39;0.60;;;0.30;;
52440;SDS011;39611;46.062;8.950;2023-05-18T11:03:10;1.75;;;0.57;;
52440;SDS011;39611;46.062;8.950;2023-05-18T11:05:39;2.33;;;0.45;;
52440;SDS011;39611;46.062;8.950;2023-05-18T11:08:06;0.55;;;0.40;;
52440;SDS011;39611;46.062;8.950;2023-05-18T11:10:42;0.35;;;0.30;;
52440;SDS011;39611;46.062;8.950;2023-05-18T11:13:09;1.02;;;0.30;;
52440;SDS011;39611;46.062;8.950;2023-05-18T11:20:59;0.60;;;0.22;;
52440;SDS011;39611;46.062;8.950;2023-05-18T11:23:30;1.08;;;0.22;;
52440;SDS011;39611;46.062;8.950;2023-05-18T11:25:59;0.55;;;0.25;;
52440;SDS011;39611;46.062;8.950;2023-05-18T11:28:29;0.55;;;0.30;;
52440;SDS011;39611;46.062;8.950;2023-05-18T11:30:56;0.28;;;0.20;;
52440;SDS011;39611;46.062;8.950;2023-05-18T11:33:24;0.90;;;0.30;;
52440;SDS011;39611;46.062;8.950;2023-05-18T11:38:49;1.00;;;0.40;;
52440;SDS011;39611;46.062;8.950;2023-05-18T11:41:28;0.50;;;0.20;;
52440;SDS011;39611;46.062;8.950;2023-05-18T11:46:39;0.95;;;0.47;;
52440;SDS011;39611;46.062;8.950;2023-05-18T11:49:08;1.10;;;0.30;;
52440;SDS011;39611;46.062;8.950;2023-05-18T11:51:54;0.57;;;0.30;;
52440;SDS011;39611;46.062;8.950;2023-05-18T11:54:24;0.70;;;0.50;;
52440;SDS011;39611;46.062;8.950;2023-05-18T11:56:54;0.45;;;0.28;;
52440;SDS011;39611;46.062;8.950;2023-05-18T11:59:30;0.60;;;0.30;;
52440;SDS011;39611;46.062;8.950;2023-05-18T12:01:58;0.95;;;0.30;;
52440;SDS011;39611;46.062;8.950;2023-05-18T12:04:24;0.80;;;0.30;;
52440;SDS011;39611;46.062;8.950;2023-05-18T12:06:52;0.65;;;0.30;;
52440;SDS011;39611;46.062;8.950;2023-05-18T12:09:19;1.00;;;0.40;;
52440;SDS011;39611;46.062;8.950;2023-05-18T12:11:46;0.30;;;0.20;;
52440;SDS011;39611;46.062;8.950;2023-05-18T12:14:12;0.22;;;0.20;;
52440;SDS011;39611;46.062;8.950;2023-05-18T12:16:39;0.60;;;0.30;;
52440;SDS011;39611;46.062;8.950;2023-05-18T12:19:06;1.90;;;0.32;;
52440;SDS011;39611;46.062;8.950;2023-05-18T12:21:36;1.05;;;0.35;;
52440;SDS011;39611;46.062;8.950;2023-05-18T12:24:02;0.63;;;0.30;;
52440;SDS011;39611;46.062;8.950;2023-05-18T12:26:29;0.40;;;0.30;;
52440;SDS011;39611;46.062;8.950;2023-05-18T12:28:59;0.60;;;0.20;;
52440;SDS011;39611;46.062;8.950;2023-05-18T12:31:27;0.57;;;0.20;;
52440;SDS011;39611;46.062;8.950;2023-05-18T12:33:53;0.57;;;0.38;;
52440;SDS011;39611;46.062;8.950;2023-05-18T12:36:22;3.95;;;0.40;;
52440;SDS011;39611;46.062;8.950;2023-05-18T12:38:52;0.63;;;0.30;;
52440;SDS011;39611;46.062;8.950;2023-05-18T12:41:24;1.17;;;0.40;;
52440;SDS011;39611;46.062;8.950;2023-05-18T12:43:54;0.43;;;0.20;;
52440;SDS011;39611;46.062;8.950;2023-05-18T12:46:21;1.92;;;0.52;;
52440;SDS011;39611;46.062;8.950;2023-05-18T12:48:57;0.40;;;0.30;;
52440;SDS011;39611;46.062;8.950;2023-05-18T12:51:23;0.43;;;0.30;;
52440;SDS011;39611;46.062;8.950;2023-05-18T12:53:56;1.40;;;0.57;;
52440;SDS011;39611;46.062;8.950;2023-05-18T12:56:22;2.10;;;0.30;;
52440;SDS011;39611;46.062;8.950;2023-05-18T12:58:54;0.47;;;0.20;;
52440;SDS011;39611;46.062;8.950;2023-05-18T13:01:20;0.50;;;0.20;;
52440;SDS011;39611;46.062;8.950;2023-05-18T13:03:47;0.95;;;0.20;;
52440;SDS011;39611;46.062;8.950;2023-05-18T13:06:19;0.60;;;0.30;;
52440;SDS011;39611;46.062;8.950;2023-05-18T13:08:46;0.60;;;0.30;;
52440;SDS011;39611;46.062;8.950;2023-05-18T13:11:12;0.45;;;0.30;;
52440;SDS011;39611;46.062;8.950;2023-05-18T13:14:03;0.63;;;0.25;;
52440;SDS011;39611;46.062;8.950;2023-05-18T13:16:31;0.45;;;0.30;;
52440;SDS011;39611;46.062;8.950;2023-05-18T13:18:58;0.32;;;0.20;;
52440;SDS011;39611;46.062;8.950;2023-05-18T13:21:25;2.50;;;0.45;;
52440;SDS011;39611;46.062;8.950;2023-05-18T13:23:52;0.20;;;0.20;;
52440;SDS011;39611;46.062;8.950;2023-05-18T13:26:21;0.20;;;0.15;;
52440;SDS011;39611;46.062;8.950;2023-05-18T13:28:49;0.30;;;0.20;;
52440;SDS011;39611;46.062;8.950;2023-05-18T13:31:16;0.57;;;0.30;;
52440;SDS011;39611;46.062;8.950;2023-05-18T13:33:42;0.80;;;0.20;;
52440;SDS011;39611;46.062;8.950;2023-05-18T13:36:09;0.57;;;0.20;;
52440;SDS011;39611;46.062;8.950;2023-05-18T13:38:35;0.40;;;0.30;;
52440;SDS011;39611;46.062;8.950;2023-05-18T13:41:03;0.52;;;0.20;;
52440;SDS011;39611;46.062;8.950;2023-05-18T13:43:30;0.75;;;0.40;;
52440;SDS011;39611;46.062;8.950;2023-05-18T13:45:56;3.00;;;0.35;;
52440;SDS011;39611;46.062;8.950;2023-05-18T13:48:23;0.30;;;0.20;;
52440;SDS011;39611;46.062;8.950;2023-05-18T13:50:49;1.45;;;0.30;;
52440;SDS011;39611;46.062;8.950;2023-05-18T13:53:16;0.22;;;0.10;;
52440;SDS011;39611;46.062;8.950;2023-05-18T13:55:42;0.25;;;0.20;;
52440;SDS011;39611;46.062;8.950;2023-05-18T13:58:09;0.38;;;0.20;;
52440;SDS011;39611;46.062;8.950;2023-05-18T14:00:35;1.83;;;0.40;;
52440;SDS011;39611;46.062;8.950;2023-05-18T14:03:02;0.40;;;0.20;;
52440;SDS011;39611;46.062;8.950;2023-05-18T14:05:28;0.20;;;0.20;;
52440;SDS011;39611;46.062;8.950;2023-05-18T14:07:55;2.50;;;0.40;;
52440;SDS011;39611;46.062;8.950;2023-05-18T14:10:21;0.30;;;0.20;;
52440;SDS011;39611;46.062;8.950;2023-05-18T14:12:48;0.30;;;0.17;;
52440;SDS011;39611;46.062;8.950;2023-05-18T14:15:14;1.00;;;0.28;;
52440;SDS011;39611;46.062;8.950;2023-05-18T14:17:41;0.40;;;0.20;;
52440;SDS011;39611;46.062;8.950;2023-05-18T14:20:08;0.63;;;0.30;;
52440;SDS011;39611;46.062;8.950;2023-05-18T14:22:35;1.95;;;0.20;;
52440;SDS011;39611;46.062;8.950;2023-05-18T14:25:01;0.98;;;0.32;;
52440;SDS011;39611;46.062;8.950;2023-05-18T14:27:28;1.90;;;0.60;;
52440;SDS011;39611;46.062;8.950;2023-05-18T14:29:54;0.50;;;0.20;;
52440;SDS011;39611;46.062;8.950;2023-05-18T14:32:21;0.68;;;0.30;;
52440;SDS011;39611;46.062;8.950;2023-05-18T14:34:48;0.60;;;0.30;;
52440;SDS011;39611;46.062;8.950;2023-05-18T14:37:20;0.57;;;0.30;;
52440;SDS011;39611;46.062;8.950;2023-05-18T14:39:46;1.45;;;0.43;;
52440;SDS011;39611;46.062;8.950;2023-05-18T14:42:13;0.38;;;0.25;;
52440;SDS011;39611;46.062;8.950;2023-05-18T14:44:39;0.63;;;0.20;;
52440;SDS011;39611;46.062;8.950;2023-05-18T14:47:05;0.55;;;0.30;;
52440;SDS011;39611;46.062;8.950;2023-05-18T14:49:32;0.75;;;0.20;;
52440;SDS011;39611;46.062;8.950;2023-05-18T14:51:58;0.60;;;0.20;;
52440;SDS011;39611;46.062;8.950;2023-05-18T14:54:25;0.45;;;0.20;;
52440;SDS011;39611;46.062;8.950;2023-05-18T14:56:51;0.57;;;0.28;;
52440;SDS011;39611;46.062;8.950;2023-05-18T14:59:17;0.40;;;0.10;;
52440;SDS011;39611;46.062;8.950;2023-05-18T15:01:44;0.80;;;0.30;;
52440;SDS011;39611;46.062;8.950;2023-05-18T15:04:10;0.75;;;0.40;;
52440;SDS011;39611;46.062;8.950;2023-05-18T15:06:37;1.90;;;0.77;;
52440;SDS011;39611;46.062;8.950;2023-05-18T15:09:03;0.50;;;0.30;;
52440;SDS011;39611;46.062;8.950;2023-05-18T15:11:31;0.75;;;0.20;;